Terminal Aerodrome Forecast
Issued by NWS

Home | Current Version | Previous Version | Text Only | Print | Product List | Glossary On
Versions: 1 2 3 4 5 6 7 8 9 10 11 12 13 14 15 16 17 18 19 20 21
000
FTUS43 KGRB 252325
TAFRHI
TAF
KRHI 252325Z 2600/2624 11010G18KT 6SM -SHRA BR SCT045 BKN100
      TEMPO 2600/2604 3SM -TSRA BKN020 OVC045CB
     FM260600 22003KT 1SM BR BKN003 BKN010
     FM261500 21007KT P6SM SCT018 BKN025 PROB30 2615/2619 3SM -TSRA
      OVC025CB
     FM261900 24008G15KT P6SM SCT025 BKN040=

USA.gov is the U.S. government's official web portal to all federal, state and local government web resources and services.